Time;durP1;ratioP1;P1;durP2;ratioP2;P2;SDS_P1;SDS_P2;PMS_P1;PMS_P2;Temp;Humidity;BMP_temperature;BMP_pressure;BME280_temperature;BME280_humidity;BME280_pressure;Samples;Min_cycle;Max_cycle;Signal;HPM_P1;HPM_P2
2024/01/06 00:02:01;;;;;;;4.43;2.22;;;4.20;99.90;;;;;;4994873;28;20223;-77
2024/01/06 00:04:29;;;;;;;2.92;2.50;;;4.20;99.90;;;;;;4994835;28;20211;-76
2024/01/06 00:06:56;;;;;;;4.95;2.60;;;4.20;99.90;;;;;;4994495;28;20203;-76
2024/01/06 00:09:23;;;;;;;2.75;2.00;;;4.20;99.90;;;;;;4994378;28;20731;-76
2024/01/06 00:11:49;;;;;;;2.78;1.70;;;4.30;99.90;;;;;;4994544;28;20227;-76
2024/01/06 00:14:16;;;;;;;3.63;2.42;;;4.30;99.90;;;;;;4994322;28;20212;-76
2024/01/06 00:16:43;;;;;;;2.25;1.50;;;4.30;99.90;;;;;;4994652;28;20313;-76
2024/01/06 00:19:10;;;;;;;3.35;2.63;;;4.30;99.90;;;;;;4993849;28;20217;-76
2024/01/06 00:21:38;;;;;;;2.05;1.60;;;4.40;99.90;;;;;;4994015;28;20238;-76
2024/01/06 00:24:05;;;;;;;2.45;2.10;;;4.40;99.90;;;;;;4994364;28;20212;-76
2024/01/06 00:26:31;;;;;;;13.70;2.13;;;4.40;99.90;;;;;;4994393;28;20207;-76
2024/01/06 00:28:58;;;;;;;7.32;2.20;;;4.50;99.90;;;;;;4994347;28;20396;-76
2024/01/06 00:31:25;;;;;;;2.85;1.50;;;4.50;99.90;;;;;;4993463;28;20231;-76
2024/01/06 00:33:52;;;;;;;5.78;1.73;;;4.50;99.90;;;;;;4994161;28;20211;-76
2024/01/06 00:36:18;;;;;;;1.85;1.38;;;4.50;99.90;;;;;;4993698;28;20210;-76
2024/01/06 00:38:46;;;;;;;2.55;1.65;;;4.50;99.90;;;;;;4994551;28;20592;-76
2024/01/06 00:41:14;;;;;;;1.98;1.45;;;4.50;99.90;;;;;;4993714;28;20239;-76
2024/01/06 00:43:41;;;;;;;1.90;1.70;;;4.60;99.90;;;;;;4993960;28;20211;-79
2024/01/06 00:46:07;;;;;;;1.75;1.55;;;4.60;99.90;;;;;;4993763;28;20203;-76
2024/01/06 00:48:34;;;;;;;2.65;1.80;;;4.60;99.90;;;;;;4993611;28;20211;-77
2024/01/06 00:51:01;;;;;;;2.85;1.70;;;4.60;99.90;;;;;;4993868;28;20716;-76
2024/01/06 00:53:27;;;;;;;2.13;1.17;;;4.60;99.90;;;;;;4993335;28;20604;-76
2024/01/06 00:55:56;;;;;;;2.50;1.35;;;4.50;99.90;;;;;;4993538;28;20207;-76
2024/01/06 00:58:22;;;;;;;2.08;1.77;;;4.50;99.90;;;;;;4993129;28;20227;-76
2024/01/06 01:00:49;;;;;;;2.80;1.48;;;4.50;99.90;;;;;;4993538;28;20203;-76
2024/01/06 01:03:16;;;;;;;2.15;1.20;;;4.50;99.90;;;;;;4992901;28;20207;-76
2024/01/06 01:05:43;;;;;;;1.40;1.30;;;4.50;99.90;;;;;;4993717;28;20211;-76
2024/01/06 01:08:09;;;;;;;1.30;1.10;;;4.50;99.90;;;;;;4993171;28;20210;-76
2024/01/06 01:10:36;;;;;;;1.40;1.30;;;4.50;99.90;;;;;;4993156;28;20218;-77
2024/01/06 01:13:04;;;;;;;2.65;1.08;;;4.40;99.90;;;;;;4993248;28;20222;-76
2024/01/06 01:15:31;;;;;;;1.35;1.10;;;4.40;99.90;;;;;;4993195;28;20688;-76
2024/01/06 01:17:58;;;;;;;2.30;1.83;;;4.40;99.90;;;;;;4992933;28;20237;-77
2024/01/06 01:20:24;;;;;;;1.88;1.65;;;4.40;99.90;;;;;;4993147;28;20226;-77
2024/01/06 01:22:51;;;;;;;3.35;1.48;;;4.40;99.90;;;;;;4992661;28;20720;-77
2024/01/06 01:25:18;;;;;;;6.07;1.30;;;4.40;99.90;;;;;;4993226;28;20211;-76
2024/01/06 01:27:44;;;;;;;1.10;1.00;;;4.40;99.90;;;;;;4993340;28;20218;-77
2024/01/06 01:30:13;;;;;;;1.30;1.05;;;4.30;99.90;;;;;;4992843;28;20596;-77
2024/01/06 01:32:40;;;;;;;1.13;1.02;;;4.30;99.90;;;;;;4992677;28;20235;-77
2024/01/06 01:35:08;;;;;;;2.13;1.20;;;4.30;99.90;;;;;;4992746;28;20592;-76
2024/01/06 01:37:34;;;;;;;1.40;1.30;;;4.20;99.90;;;;;;4992633;28;20235;-77
2024/01/06 01:40:01;;;;;;;1.05;0.95;;;4.20;99.90;;;;;;4992607;28;20219;-77
2024/01/06 01:42:28;;;;;;;1.60;1.50;;;4.20;99.90;;;;;;4992619;28;20235;-77
2024/01/06 01:44:55;;;;;;;1.10;1.00;;;4.20;99.90;;;;;;4993330;28;20254;-76
2024/01/06 01:47:23;;;;;;;1.70;1.60;;;4.10;99.90;;;;;;4992439;28;20215;-76
2024/01/06 01:49:50;;;;;;;1.88;1.35;;;4.10;99.90;;;;;;4992838;28;20211;-76
2024/01/06 01:52:17;;;;;;;1.20;1.10;;;4.10;99.90;;;;;;4992424;28;20755;-77
2024/01/06 01:54:45;;;;;;;1.25;1.08;;;4.10;99.90;;;;;;4992812;28;20212;-76
2024/01/06 01:57:13;;;;;;;2.22;1.70;;;4.00;99.90;;;;;;4992625;28;20237;-76
2024/01/06 01:59:40;;;;;;;1.20;1.10;;;4.00;99.90;;;;;;4991056;28;20632;-76
2024/01/06 02:02:08;;;;;;;3.20;1.30;;;4.00;99.90;;;;;;4991880;28;20596;-76
2024/01/06 02:04:36;;;;;;;1.42;1.23;;;4.00;99.90;;;;;;4992443;28;20217;-76
2024/01/06 02:07:03;;;;;;;2.95;1.50;;;4.00;99.90;;;;;;4992190;28;20203;-76
2024/01/06 02:09:30;;;;;;;1.90;1.10;;;4.00;99.90;;;;;;4992121;28;20676;-77
2024/01/06 02:11:57;;;;;;;2.08;1.40;;;4.00;99.90;;;;;;4991684;28;20254;-76
2024/01/06 02:14:24;;;;;;;1.10;1.00;;;4.00;99.90;;;;;;4992223;28;20207;-76
2024/01/06 02:16:51;;;;;;;1.05;0.95;;;4.00;99.90;;;;;;4992302;28;20231;-76
2024/01/06 02:19:18;;;;;;;1.40;1.20;;;4.00;99.90;;;;;;4991946;28;20203;-76
2024/01/06 02:21:53;;;;;;;1.40;1.20;;;4.00;99.90;;;;;;4991843;28;20231;-76
2024/01/06 02:24:20;;;;;;;1.30;1.05;;;4.00;99.90;;;;;;4992177;28;20210;-76
2024/01/06 02:26:47;;;;;;;2.13;1.33;;;4.00;99.90;;;;;;4992368;28;20214;-76
2024/01/06 02:29:14;;;;;;;2.55;1.73;;;4.00;99.90;;;;;;4991890;28;20236;-77
2024/01/06 02:31:40;;;;;;;2.60;1.23;;;4.00;99.90;;;;;;4991429;28;20249;-76
2024/01/06 02:34:07;;;;;;;1.70;1.60;;;4.00;99.90;;;;;;4992321;28;20203;-77
2024/01/06 02:36:34;;;;;;;1.27;1.15;;;4.00;99.90;;;;;;4991917;28;20213;-77
2024/01/06 02:39:02;;;;;;;2.22;1.30;;;4.00;99.90;;;;;;4991489;28;20226;-76
2024/01/06 02:41:29;;;;;;;2.00;1.10;;;4.00;99.90;;;;;;4990895;28;20235;-77
2024/01/06 02:43:56;;;;;;;1.60;1.20;;;4.00;99.90;;;;;;4992069;28;20218;-77
2024/01/06 02:46:22;;;;;;;3.00;1.33;;;4.00;99.90;;;;;;4992252;28;20269;-76
2024/01/06 02:48:49;;;;;;;4.10;2.17;;;4.00;99.90;;;;;;4991876;28;20210;-76
2024/01/06 02:51:15;;;;;;;2.22;1.35;;;3.90;99.90;;;;;;4991433;28;20234;-77
2024/01/06 02:53:42;;;;;;;2.07;1.70;;;3.90;99.90;;;;;;4991637;28;20207;-77
2024/01/06 02:56:12;;;;;;;1.90;1.40;;;4.00;99.90;;;;;;4991862;28;20207;-77
2024/01/06 02:58:38;;;;;;;2.60;1.75;;;4.00;99.90;;;;;;4994118;28;20223;-77
2024/01/06 03:01:05;;;;;;;1.65;1.55;;;4.00;99.90;;;;;;4991798;28;20223;-77
2024/01/06 03:03:32;;;;;;;1.88;1.58;;;4.00;99.90;;;;;;4991470;28;20239;-77
2024/01/06 03:05:59;;;;;;;1.30;1.20;;;4.00;99.90;;;;;;4991339;28;20211;-77
2024/01/06 03:08:26;;;;;;;1.70;1.60;;;4.00;99.90;;;;;;4991352;28;20206;-76
2024/01/06 03:10:53;;;;;;;2.85;1.60;;;4.00;99.90;;;;;;4994168;28;20298;-76
2024/01/06 03:13:21;;;;;;;1.70;1.35;;;4.00;99.90;;;;;;4995266;28;20207;-77
2024/01/06 03:15:48;;;;;;;1.60;1.50;;;4.00;99.90;;;;;;4995505;28;20207;-77
2024/01/06 03:18:14;;;;;;;1.80;1.27;;;4.00;99.90;;;;;;4994879;28;20227;-77
2024/01/06 03:20:41;;;;;;;1.60;1.13;;;4.00;99.90;;;;;;4995228;28;20695;-77
2024/01/06 03:23:08;;;;;;;1.50;1.40;;;4.00;99.90;;;;;;4994998;28;20217;-77
2024/01/06 03:25:35;;;;;;;2.03;1.10;;;4.00;99.90;;;;;;4995370;28;20214;-76
2024/01/06 03:28:02;;;;;;;1.00;0.90;;;4.00;99.90;;;;;;4995174;28;20215;-77
2024/01/06 03:30:30;;;;;;;1.42;1.15;;;3.90;99.90;;;;;;4994964;28;20218;-77
2024/01/06 03:32:56;;;;;;;2.20;1.30;;;3.90;99.90;;;;;;4994923;28;20235;-76
2024/01/06 03:35:23;;;;;;;2.08;1.55;;;3.90;99.90;;;;;;4995143;28;20616;-76
2024/01/06 03:37:50;;;;;;;1.65;1.50;;;3.80;99.90;;;;;;4995146;28;20333;-76
2024/01/06 03:40:16;;;;;;;5.13;2.30;;;3.80;99.90;;;;;;4995379;28;20447;-76
2024/01/06 03:42:43;;;;;;;2.40;1.42;;;3.80;99.90;;;;;;4994314;28;20238;-77
2024/01/06 03:45:10;;;;;;;1.33;1.23;;;3.80;99.90;;;;;;4994969;28;20211;-77
2024/01/06 03:47:38;;;;;;;4.47;1.92;;;3.80;99.90;;;;;;4994848;28;20207;-77
2024/01/06 03:50:05;;;;;;;3.75;1.20;;;3.80;99.90;;;;;;4994710;28;20215;-78
2024/01/06 03:52:32;;;;;;;1.48;1.38;;;3.80;99.90;;;;;;4994644;28;20227;-76
2024/01/06 03:54:59;;;;;;;1.65;1.40;;;3.80;99.90;;;;;;4991174;28;20390;-77
2024/01/06 03:57:26;;;;;;;1.80;1.60;;;3.70;99.90;;;;;;4994353;28;20230;-77
2024/01/06 03:59:53;;;;;;;2.17;1.30;;;3.80;99.90;;;;;;4994649;28;20214;-77
2024/01/06 04:02:19;;;;;;;1.50;1.40;;;3.70;99.90;;;;;;4994475;28;20667;-77
2024/01/06 04:04:47;;;;;;;2.22;1.73;;;3.70;99.90;;;;;;4994640;28;20212;-77
2024/01/06 04:07:14;;;;;;;1.70;1.30;;;3.70;99.90;;;;;;4994480;28;20218;-77
2024/01/06 04:09:43;;;;;;;2.22;2.05;;;3.70;99.90;;;;;;4994164;28;20215;-77
2024/01/06 04:12:10;;;;;;;1.52;1.42;;;3.70;99.90;;;;;;4994373;28;20734;-77
2024/01/06 04:14:36;;;;;;;2.28;1.65;;;3.70;99.90;;;;;;4994259;28;20202;-77
2024/01/06 04:17:03;;;;;;;2.13;1.52;;;3.70;99.90;;;;;;4994548;28;20298;-77
2024/01/06 04:19:30;;;;;;;1.80;1.52;;;3.70;99.90;;;;;;4994146;28;20734;-77
2024/01/06 04:21:58;;;;;;;1.90;1.35;;;3.70;99.90;;;;;;4992718;28;20238;-76
2024/01/06 04:24:25;;;;;;;5.05;1.38;;;3.70;99.90;;;;;;4994547;28;20215;-77
2024/01/06 04:26:51;;;;;;;2.22;1.75;;;3.70;99.90;;;;;;4994085;28;20214;-76
2024/01/06 04:29:18;;;;;;;1.33;1.23;;;3.70;99.90;;;;;;4994282;28;20222;-76
2024/01/06 04:31:45;;;;;;;1.80;1.70;;;3.70;99.90;;;;;;4993781;28;20246;-76
2024/01/06 04:34:12;;;;;;;4.10;1.55;;;3.70;99.90;;;;;;4993812;28;20207;-77
2024/01/06 04:36:39;;;;;;;1.27;1.00;;;3.70;99.90;;;;;;4993965;28;20230;-77
2024/01/06 04:39:07;;;;;;;1.67;1.23;;;3.70;99.90;;;;;;4993712;28;20230;-77
2024/01/06 04:41:34;;;;;;;1.50;1.40;;;3.70;99.90;;;;;;4993557;28;20237;-77
2024/01/06 04:44:01;;;;;;;1.38;1.20;;;3.60;99.90;;;;;;4993814;28;20215;-77
2024/01/06 04:46:30;;;;;;;2.03;1.50;;;3.60;99.90;;;;;;4993645;28;20239;-77
2024/01/06 04:48:57;;;;;;;2.63;1.02;;;3.70;99.90;;;;;;4993373;28;20290;-77
2024/01/06 04:51:24;;;;;;;1.67;0.95;;;3.70;99.90;;;;;;4993373;28;20230;-77
2024/01/06 04:53:50;;;;;;;2.47;1.30;;;3.60;99.90;;;;;;4994020;28;20300;-77
2024/01/06 04:56:18;;;;;;;1.23;1.08;;;3.60;99.90;;;;;;4993741;28;20574;-77
2024/01/06 04:58:45;;;;;;;1.83;1.60;;;3.60;99.90;;;;;;4993021;28;20237;-77
2024/01/06 05:01:12;;;;;;;1.63;1.38;;;3.60;99.90;;;;;;4993500;28;20234;-76
2024/01/06 05:03:39;;;;;;;4.80;1.10;;;3.60;99.90;;;;;;4993291;28;20308;-77
2024/01/06 05:06:06;;;;;;;4.13;1.27;;;3.60;99.90;;;;;;4993599;28;20211;-77
2024/01/06 05:08:33;;;;;;;1.88;1.42;;;3.50;99.90;;;;;;4993247;28;20212;-76
2024/01/06 05:11:00;;;;;;;2.50;1.70;;;3.50;99.90;;;;;;4993286;28;20322;-77
2024/01/06 05:13:29;;;;;;;1.30;1.20;;;3.50;99.90;;;;;;4993150;28;20206;-77
2024/01/06 05:15:55;;;;;;;2.22;1.70;;;3.50;99.90;;;;;;4993257;28;20680;-77
2024/01/06 05:18:22;;;;;;;2.60;1.30;;;3.40;99.90;;;;;;4993047;28;20246;-76
2024/01/06 05:20:49;;;;;;;1.58;1.27;;;3.30;99.90;;;;;;4993298;28;20203;-76
2024/01/06 05:23:16;;;;;;;1.83;1.35;;;3.30;99.90;;;;;;4992978;28;20611;-76
2024/01/06 05:25:42;;;;;;;2.10;1.10;;;3.30;99.90;;;;;;4992951;28;20212;-76
2024/01/06 05:28:09;;;;;;;1.48;1.08;;;3.30;99.90;;;;;;4992918;28;20210;-77
2024/01/06 05:30:37;;;;;;;1.40;1.30;;;3.30;99.90;;;;;;4993089;28;20585;-76
2024/01/06 05:33:04;;;;;;;1.67;1.58;;;3.30;99.90;;;;;;4992420;28;20771;-77
2024/01/06 05:35:31;;;;;;;1.70;1.20;;;3.40;99.90;;;;;;4992954;28;20207;-76
2024/01/06 05:37:58;;;;;;;1.48;1.20;;;3.40;99.90;;;;;;4992268;28;20230;-77
2024/01/06 05:40:25;;;;;;;1.23;1.10;;;3.40;99.90;;;;;;4992989;28;20284;-76
2024/01/06 05:42:55;;;;;;;2.38;1.15;;;3.40;99.90;;;;;;4992373;28;20712;-76
2024/01/06 05:45:22;;;;;;;1.15;0.95;;;3.50;99.90;;;;;;4993162;28;20207;-77
2024/01/06 05:47:50;;;;;;;1.50;1.25;;;3.50;99.90;;;;;;4992607;28;20204;-76
2024/01/06 05:50:17;;;;;;;1.10;0.80;;;3.50;99.90;;;;;;4992301;28;20206;-76
2024/01/06 05:52:44;;;;;;;1.20;1.10;;;3.50;99.90;;;;;;4992178;28;20231;-76
2024/01/06 05:55:11;;;;;;;3.60;1.42;;;3.50;99.90;;;;;;4992606;28;20213;-77
2024/01/06 05:57:38;;;;;;;3.60;1.50;;;3.50;99.90;;;;;;4992728;28;20211;-76
2024/01/06 06:00:08;;;;;;;1.88;1.20;;;3.50;99.90;;;;;;4992148;28;20238;-77
2024/01/06 06:02:35;;;;;;;2.10;1.20;;;3.50;99.90;;;;;;4992118;28;20252;-76
2024/01/06 06:05:03;;;;;;;1.10;1.00;;;3.60;99.90;;;;;;4992427;28;20211;-77
2024/01/06 06:07:30;;;;;;;7.38;1.42;;;3.60;99.90;;;;;;4992553;28;20595;-76
2024/01/06 06:09:57;;;;;;;1.05;0.95;;;3.60;99.90;;;;;;4992125;28;20205;-77
2024/01/06 06:12:23;;;;;;;1.50;1.40;;;3.70;99.90;;;;;;4992283;28;20223;-77
2024/01/06 06:14:50;;;;;;;3.95;1.30;;;3.70;99.90;;;;;;4992137;28;20218;-76
2024/01/06 06:17:16;;;;;;;1.90;1.50;;;3.70;99.90;;;;;;4992275;28;20215;-76
2024/01/06 06:19:43;;;;;;;3.05;1.88;;;3.70;99.90;;;;;;4989202;28;20237;-77
2024/01/06 06:22:11;;;;;;;2.00;1.58;;;3.70;99.90;;;;;;4990453;28;20696;-77
2024/01/06 06:24:38;;;;;;;2.65;1.30;;;3.70;99.90;;;;;;4992189;28;20214;-76
2024/01/06 06:27:05;;;;;;;4.32;1.45;;;3.70;99.90;;;;;;4991351;28;20215;-76
2024/01/06 06:29:32;;;;;;;5.78;1.63;;;3.70;99.90;;;;;;4992116;28;20214;-76
2024/01/06 06:31:59;;;;;;;1.70;1.45;;;3.80;99.90;;;;;;4991427;28;20233;-76
2024/01/06 06:34:26;;;;;;;1.90;1.55;;;3.80;99.90;;;;;;4991848;28;20771;-76
2024/01/06 06:36:53;;;;;;;1.45;1.15;;;3.80;99.90;;;;;;4991650;28;20209;-76
2024/01/06 06:39:21;;;;;;;6.57;1.60;;;3.80;99.90;;;;;;4991762;28;20231;-76
2024/01/06 06:41:47;;;;;;;1.50;1.30;;;3.90;99.90;;;;;;4991223;28;20241;-76
2024/01/06 06:44:14;;;;;;;1.25;1.15;;;3.90;99.90;;;;;;4992234;28;20211;-77
2024/01/06 06:46:41;;;;;;;1.20;1.10;;;3.90;99.90;;;;;;4997997;28;20209;-76
2024/01/06 06:49:07;;;;;;;1.65;1.27;;;3.90;99.90;;;;;;4997597;28;20234;-77
2024/01/06 06:51:34;;;;;;;1.60;1.25;;;3.90;99.90;;;;;;4997607;28;20231;-77
2024/01/06 06:54:01;;;;;;;2.47;1.70;;;3.90;99.90;;;;;;4998271;28;20637;-77
2024/01/06 06:56:29;;;;;;;6.55;1.90;;;3.90;99.90;;;;;;4998367;28;20213;-76
2024/01/06 06:58:56;;;;;;;2.00;1.23;;;3.90;99.90;;;;;;4995453;28;20227;-77
2024/01/06 07:01:22;;;;;;;4.63;1.50;;;3.90;99.90;;;;;;4997305;28;20241;-77
2024/01/06 07:03:49;;;;;;;1.77;0.98;;;3.90;99.90;;;;;;4998016;28;20214;-77
2024/01/06 07:06:16;;;;;;;1.00;0.90;;;3.80;99.90;;;;;;4997479;28;20228;-76
2024/01/06 07:08:43;;;;;;;1.38;1.27;;;3.80;99.90;;;;;;4997740;28;20203;-76
2024/01/06 07:11:11;;;;;;;6.55;1.38;;;3.90;99.90;;;;;;4997926;28;20600;-77
2024/01/06 07:13:39;;;;;;;1.30;1.08;;;3.90;99.90;;;;;;4997865;28;20234;-76
2024/01/06 07:16:07;;;;;;;1.95;1.35;;;3.90;99.90;;;;;;4999182;28;20225;-77
2024/01/06 07:18:33;;;;;;;1.10;1.00;;;3.90;99.90;;;;;;4997371;28;20218;-77
2024/01/06 07:21:00;;;;;;;0.90;0.80;;;3.90;99.90;;;;;;4997575;28;20238;-77
2024/01/06 07:23:27;;;;;;;2.03;1.42;;;3.90;99.90;;;;;;4997684;28;20210;-77
2024/01/06 07:25:53;;;;;;;2.50;1.48;;;4.00;99.90;;;;;;4997965;28;20210;-77
2024/01/06 07:28:20;;;;;;;11.88;7.18;;;4.00;99.90;;;;;;4997318;28;20212;-77
2024/01/06 07:30:48;;;;;;;3.70;3.25;;;4.00;99.90;;;;;;4997619;28;20735;-77
2024/01/06 07:33:15;;;;;;;1.15;1.05;;;4.00;99.90;;;;;;4997543;28;20207;-78
2024/01/06 07:35:43;;;;;;;1.58;1.00;;;4.10;99.90;;;;;;4998073;28;20689;-77
2024/01/06 07:38:10;;;;;;;1.77;1.20;;;4.10;99.90;;;;;;4997474;28;20703;-78
2024/01/06 07:40:37;;;;;;;1.15;1.05;;;4.10;99.90;;;;;;4997816;28;20787;-77
2024/01/06 07:43:05;;;;;;;2.22;1.60;;;4.10;99.90;;;;;;4996732;28;20207;-77
2024/01/06 07:45:31;;;;;;;1.95;1.35;;;4.10;99.90;;;;;;4998005;28;20354;-76
2024/01/06 07:48:00;;;;;;;2.10;1.52;;;4.10;99.90;;;;;;4997438;28;20214;-76
2024/01/06 07:50:27;;;;;;;2.17;1.70;;;4.10;99.90;;;;;;4997121;28;20573;-76
2024/01/06 07:52:54;;;;;;;1.70;1.30;;;4.10;99.90;;;;;;4996462;28;20656;-76
2024/01/06 07:55:21;;;;;;;2.10;1.88;;;4.10;99.90;;;;;;4997437;28;20218;-76
2024/01/06 07:57:48;;;;;;;1.98;1.35;;;4.20;99.90;;;;;;4994302;28;20207;-76
2024/01/06 08:00:15;;;;;;;1.77;1.60;;;4.20;99.90;;;;;;4993957;28;20789;-76
2024/01/06 08:02:42;;;;;;;3.42;1.20;;;4.30;99.90;;;;;;4994319;28;20227;-76
2024/01/06 08:05:10;;;;;;;1.90;1.30;;;4.30;99.90;;;;;;4994679;28;20213;-77
2024/01/06 08:07:37;;;;;;;4.38;1.55;;;4.40;99.90;;;;;;4994044;28;20625;-77
2024/01/06 08:10:05;;;;;;;1.45;1.20;;;4.40;99.90;;;;;;4994007;28;20211;-77
2024/01/06 08:12:32;;;;;;;2.25;1.45;;;4.50;99.90;;;;;;4993839;28;20234;-77
2024/01/06 08:14:59;;;;;;;2.25;1.08;;;4.50;99.90;;;;;;4993726;28;20203;-77
2024/01/06 08:17:26;;;;;;;1.30;1.20;;;4.60;99.90;;;;;;4993800;28;20199;-77
2024/01/06 08:19:52;;;;;;;1.50;1.30;;;4.60;99.90;;;;;;4993167;28;20618;-76
2024/01/06 08:22:20;;;;;;;2.00;1.50;;;4.60;99.90;;;;;;4992948;28;20229;-77
2024/01/06 08:24:48;;;;;;;1.08;0.98;;;4.60;99.90;;;;;;4994151;28;20200;-77
2024/01/06 08:27:14;;;;;;;1.60;1.50;;;4.70;99.90;;;;;;4993093;28;20199;-77
2024/01/06 08:29:41;;;;;;;3.35;1.38;;;4.70;99.90;;;;;;4993250;28;20200;-77
2024/01/06 08:32:09;;;;;;;1.55;1.33;;;4.80;99.90;;;;;;4993212;28;20696;-77
2024/01/06 08:34:36;;;;;;;1.90;1.75;;;4.80;99.90;;;;;;4993846;28;20636;-77
2024/01/06 08:37:03;;;;;;;1.75;1.30;;;4.90;99.90;;;;;;4993404;28;20208;-77
2024/01/06 08:39:31;;;;;;;1.27;1.10;;;4.90;99.90;;;;;;4993551;28;20215;-76
2024/01/06 08:41:58;;;;;;;1.13;1.02;;;4.90;99.90;;;;;;4993159;28;20235;-76
2024/01/06 08:44:25;;;;;;;1.30;1.13;;;5.00;99.90;;;;;;4993227;28;20211;-76
2024/01/06 08:46:52;;;;;;;1.20;1.00;;;5.00;99.90;;;;;;4993490;28;20306;-76
2024/01/06 08:49:19;;;;;;;1.10;1.00;;;5.00;99.90;;;;;;4992668;28;20204;-76
2024/01/06 08:51:45;;;;;;;1.20;1.10;;;5.00;99.90;;;;;;4993246;28;20739;-76
2024/01/06 08:54:12;;;;;;;3.92;1.38;;;5.10;99.90;;;;;;4993085;28;20203;-75
2024/01/06 08:56:40;;;;;;;1.30;1.10;;;5.10;99.90;;;;;;4993201;28;20203;-76
2024/01/06 08:59:07;;;;;;;1.52;0.98;;;5.10;99.90;;;;;;4992756;28;20219;-76
2024/01/06 09:01:35;;;;;;;1.40;1.30;;;5.20;99.90;;;;;;4993038;28;20219;-76
2024/01/06 09:04:02;;;;;;;1.67;1.20;;;5.20;99.90;;;;;;4993204;28;20203;-76
2024/01/06 09:06:29;;;;;;;1.13;1.00;;;5.30;99.90;;;;;;4993142;28;20203;-76
2024/01/06 09:08:55;;;;;;;3.10;1.40;;;5.30;99.90;;;;;;4992419;28;20590;-76
2024/01/06 09:11:22;;;;;;;2.28;1.40;;;5.40;99.90;;;;;;4992674;28;21463;-76
2024/01/06 09:13:52;;;;;;;1.55;1.20;;;5.40;99.90;;;;;;4993109;28;20195;-76
2024/01/06 09:16:19;;;;;;;1.23;1.13;;;5.50;99.90;;;;;;4992937;28;20200;-76
2024/01/06 09:18:46;;;;;;;1.70;1.20;;;5.50;99.90;;;;;;4990267;28;20207;-76
2024/01/06 09:21:12;;;;;;;1.52;1.42;;;5.50;99.90;;;;;;4993867;28;20227;-74
2024/01/06 09:23:39;;;;;;;1.50;1.35;;;5.50;99.90;;;;;;4993667;28;20697;-76
2024/01/06 09:26:06;;;;;;;1.30;1.10;;;5.50;99.90;;;;;;4990300;28;20296;-76
2024/01/06 09:28:33;;;;;;;1.60;1.25;;;5.50;99.90;;;;;;4992670;28;20665;-76
2024/01/06 09:31:01;;;;;;;1.25;1.15;;;5.40;99.90;;;;;;4992933;28;20223;-76
2024/01/06 09:33:28;;;;;;;1.10;1.00;;;5.40;99.90;;;;;;4992595;28;20698;-76
2024/01/06 09:35:54;;;;;;;2.00;1.40;;;5.40;99.90;;;;;;4993151;28;20218;-76
2024/01/06 09:38:21;;;;;;;1.10;1.00;;;5.50;99.90;;;;;;4992593;28;20213;-76
2024/01/06 09:40:49;;;;;;;1.50;1.20;;;5.50;99.90;;;;;;4992884;28;20588;-75
2024/01/06 09:43:16;;;;;;;1.98;1.30;;;5.50;99.90;;;;;;4992336;28;20207;-75
2024/01/06 09:45:44;;;;;;;1.33;1.23;;;5.50;99.90;;;;;;4992790;28;20207;-76
2024/01/06 09:48:14;;;;;;;2.08;1.40;;;5.50;99.90;;;;;;4992404;28;20214;-78
2024/01/06 09:50:44;;;;;;;1.60;1.25;;;5.60;99.90;;;;;;4992704;28;20203;-78
2024/01/06 09:53:12;;;;;;;1.52;1.08;;;5.70;99.90;;;;;;4992252;28;20216;-78
2024/01/06 09:55:39;;;;;;;1.35;1.02;;;5.80;99.90;;;;;;4992750;28;20208;-77
2024/01/06 09:58:06;;;;;;;1.38;1.27;;;5.90;99.90;;;;;;4992223;28;20684;-78
2024/01/06 10:00:33;;;;;;;1.75;1.20;;;5.90;99.90;;;;;;4992575;28;20383;-77
2024/01/06 10:03:00;;;;;;;4.50;1.08;;;6.00;99.90;;;;;;4992589;28;20302;-77
2024/01/06 10:05:28;;;;;;;2.67;1.58;;;6.00;99.90;;;;;;4992441;28;20218;-77
2024/01/06 10:07:55;;;;;;;1.27;1.15;;;6.00;99.90;;;;;;4992305;28;20215;-78
2024/01/06 10:10:24;;;;;;;1.45;1.30;;;6.10;99.90;;;;;;4992371;28;20206;-77
2024/01/06 10:12:55;;;;;;;1.08;0.98;;;6.10;99.90;;;;;;4991930;28;20227;-77
2024/01/06 10:15:21;;;;;;;3.05;1.52;;;6.10;99.90;;;;;;4992475;28;20255;-77
2024/01/06 10:17:48;;;;;;;2.75;1.20;;;6.10;99.90;;;;;;4992418;28;20262;-77
2024/01/06 10:20:17;;;;;;;1.10;0.98;;;6.10;99.90;;;;;;4991071;28;20232;-77
2024/01/06 10:22:46;;;;;;;1.25;1.15;;;6.10;99.90;;;;;;4992222;28;20293;-78
2024/01/06 10:25:14;;;;;;;1.15;1.05;;;6.20;99.90;;;;;;4993436;28;20207;-78
2024/01/06 10:27:42;;;;;;;1.20;1.05;;;6.20;99.90;;;;;;4993857;28;20230;-78
2024/01/06 10:30:10;;;;;;;1.50;1.10;;;6.20;99.90;;;;;;4999636;28;20203;-78
2024/01/06 10:32:37;;;;;;;1.35;1.23;;;6.30;99.90;;;;;;4996792;28;20231;-78
2024/01/06 10:35:06;;;;;;;1.52;1.42;;;6.30;99.90;;;;;;4998541;28;20590;-79
2024/01/06 10:37:33;;;;;;;1.33;1.15;;;6.30;99.90;;;;;;4992796;28;20496;-77
2024/01/06 10:40:12;;;;;;;1.23;1.00;;;6.30;99.90;;;;;;4992586;28;20231;-78
2024/01/06 10:42:41;;;;;;;1.40;1.30;;;6.30;99.90;;;;;;4992234;28;20333;-77
2024/01/06 10:45:10;;;;;;;1.30;1.20;;;6.40;99.90;;;;;;4992718;28;20218;-78
2024/01/06 10:47:37;;;;;;;1.13;1.02;;;6.40;99.90;;;;;;4992835;28;20261;-78
2024/01/06 10:50:05;;;;;;;1.67;1.48;;;6.30;99.90;;;;;;4992717;28;20203;-78
2024/01/06 10:52:32;;;;;;;1.10;1.00;;;6.30;99.90;;;;;;4992322;28;20597;-78
2024/01/06 10:54:59;;;;;;;0.93;0.82;;;6.30;99.90;;;;;;4993056;28;20211;-77
2024/01/06 10:57:31;;;;;;;1.23;1.13;;;6.30;99.90;;;;;;4992452;28;20211;-78
2024/01/06 10:59:59;;;;;;;0.93;0.82;;;6.30;99.90;;;;;;4992250;28;20223;-77
2024/01/06 11:02:26;;;;;;;3.65;1.23;;;6.30;99.90;;;;;;4991774;28;20262;-78
2024/01/06 11:04:53;;;;;;;1.30;0.98;;;6.30;99.90;;;;;;4992739;28;20301;-78
2024/01/06 11:07:23;;;;;;;1.00;0.90;;;6.30;99.90;;;;;;4992281;28;20243;-78
2024/01/06 11:09:54;;;;;;;1.00;0.90;;;6.30;99.90;;;;;;4992299;28;20215;-77
2024/01/06 11:12:20;;;;;;;0.77;0.70;;;6.30;99.90;;;;;;4991442;28;20231;-78
2024/01/06 11:14:48;;;;;;;1.10;1.00;;;6.30;99.90;;;;;;4991802;28;20699;-78
2024/01/06 11:17:53;;;;;;;1.00;0.90;;;6.20;99.90;;;;;;4991611;28;20463;-78
2024/01/06 11:20:20;;;;;;;1.17;1.08;;;6.10;99.90;;;;;;4991690;28;20279;-78
2024/01/06 11:22:46;;;;;;;0.90;0.80;;;6.10;99.90;;;;;;4991569;28;20227;-78
2024/01/06 11:25:16;;;;;;;1.00;0.90;;;6.20;99.90;;;;;;4991711;28;20589;-77
2024/01/06 11:27:44;;;;;;;1.05;0.90;;;6.20;99.90;;;;;;4990467;28;20222;-77
2024/01/06 11:30:21;;;;;;;0.80;0.70;;;6.30;99.90;;;;;;4991502;28;20204;-77
2024/01/06 11:32:47;;;;;;;1.10;0.85;;;6.40;99.90;;;;;;4994279;28;20222;-77
2024/01/06 11:35:15;;;;;;;0.80;0.70;;;6.50;99.90;;;;;;4994148;28;20207;-77
2024/01/06 11:37:54;;;;;;;0.90;0.80;;;6.50;99.90;;;;;;4995138;28;20221;-76
2024/01/06 11:40:27;;;;;;;1.20;1.00;;;6.50;99.90;;;;;;4995088;28;20269;-77
2024/01/06 11:43:05;;;;;;;1.17;1.08;;;6.50;99.90;;;;;;4994984;28;20242;-77
2024/01/06 11:45:34;;;;;;;1.45;0.98;;;6.50;99.90;;;;;;4995442;28;20221;-77
2024/01/06 11:48:03;;;;;;;1.20;1.00;;;6.50;99.90;;;;;;4995243;28;20204;-77
2024/01/06 11:50:30;;;;;;;0.95;0.85;;;6.40;99.90;;;;;;4995375;28;20285;-77
2024/01/06 11:52:56;;;;;;;1.00;0.90;;;6.30;99.90;;;;;;4995342;28;20612;-77
2024/01/06 11:55:24;;;;;;;1.00;0.80;;;6.40;99.90;;;;;;4995078;28;20221;-77
2024/01/06 11:57:50;;;;;;;3.05;1.20;;;6.30;99.90;;;;;;4995670;28;20204;-78
2024/01/06 12:00:18;;;;;;;1.00;0.90;;;6.30;99.90;;;;;;4995107;28;20273;-77
2024/01/06 12:02:46;;;;;;;1.25;1.00;;;6.30;99.90;;;;;;4994952;28;20238;-77
2024/01/06 12:05:15;;;;;;;1.30;1.20;;;6.30;99.90;;;;;;4994832;28;20207;-77
2024/01/06 12:07:42;;;;;;;1.33;1.05;;;6.30;99.90;;;;;;4994922;28;20211;-77
2024/01/06 12:10:10;;;;;;;1.23;1.05;;;6.30;99.90;;;;;;4994690;28;20290;-77
2024/01/06 12:12:37;;;;;;;1.08;0.95;;;6.30;99.90;;;;;;4994678;28;20242;-76
2024/01/06 12:15:04;;;;;;;1.10;1.00;;;6.30;99.90;;;;;;4995091;28;20684;-76
2024/01/06 12:17:31;;;;;;;1.48;1.38;;;6.40;99.90;;;;;;4994591;28;20203;-77
2024/01/06 12:20:00;;;;;;;1.33;1.10;;;6.30;99.90;;;;;;4994570;28;20211;-77
2024/01/06 12:22:27;;;;;;;1.10;1.00;;;6.30;99.90;;;;;;4993974;28;20623;-77
2024/01/06 12:24:54;;;;;;;0.80;0.80;;;6.30;99.90;;;;;;4994905;28;20266;-77
2024/01/06 12:27:21;;;;;;;1.00;0.85;;;6.30;99.90;;;;;;4994648;28;20242;-77
2024/01/06 12:29:48;;;;;;;1.20;0.90;;;6.30;99.90;;;;;;4994363;28;20281;-77
2024/01/06 12:32:14;;;;;;;1.20;0.93;;;6.30;99.90;;;;;;4994022;28;20250;-77
2024/01/06 12:34:41;;;;;;;1.10;0.88;;;6.20;99.90;;;;;;4994294;28;20203;-76
2024/01/06 12:37:09;;;;;;;0.90;0.90;;;6.20;99.90;;;;;;4994555;28;20584;-77
2024/01/06 12:39:36;;;;;;;1.00;0.90;;;6.20;99.90;;;;;;4994199;28;20207;-77
2024/01/06 12:42:03;;;;;;;1.38;0.70;;;6.20;99.90;;;;;;4992772;28;20338;-76
2024/01/06 12:44:32;;;;;;;1.52;1.40;;;6.20;99.90;;;;;;4991251;28;20200;-76
2024/01/06 12:46:59;;;;;;;2.30;1.10;;;6.20;99.90;;;;;;4993486;28;20290;-77
2024/01/06 12:49:26;;;;;;;4.53;1.13;;;6.20;99.90;;;;;;4992936;28;20207;-76
2024/01/06 12:51:53;;;;;;;1.10;1.00;;;6.20;99.90;;;;;;4993242;28;20226;-77
2024/01/06 12:54:21;;;;;;;1.20;1.10;;;6.20;99.90;;;;;;4994147;28;20580;-76
2024/01/06 12:56:48;;;;;;;0.90;0.80;;;6.10;99.90;;;;;;4994235;28;20748;-75
2024/01/06 12:59:14;;;;;;;1.38;1.20;;;6.10;99.90;;;;;;4992861;28;20459;-75